sensor_id;sensor_type;location;lat;lon;timestamp;P1;durP1;ratioP1;P2;durP2;ratioP2
11143;SDS011;5626;44.730;10.276;2022-09-27T00:01:46;2.03;;;1.40;;
11143;SDS011;5626;44.730;10.276;2022-09-27T00:04:16;2.13;;;1.70;;
11143;SDS011;5626;44.730;10.276;2022-09-27T00:06:45;4.03;;;1.93;;
11143;SDS011;5626;44.730;10.276;2022-09-27T00:09:15;2.13;;;1.60;;
11143;SDS011;5626;44.730;10.276;2022-09-27T00:11:45;2.07;;;1.60;;
11143;SDS011;5626;44.730;10.276;2022-09-27T00:14:16;2.13;;;1.93;;
11143;SDS011;5626;44.730;10.276;2022-09-27T00:16:46;4.53;;;1.73;;
11143;SDS011;5626;44.730;10.276;2022-09-27T00:19:17;2.37;;;1.50;;
11143;SDS011;5626;44.730;10.276;2022-09-27T00:21:49;2.17;;;1.53;;
11143;SDS011;5626;44.730;10.276;2022-09-27T00:24:19;1.77;;;1.67;;
11143;SDS011;5626;44.730;10.276;2022-09-27T00:26:51;2.63;;;1.77;;
11143;SDS011;5626;44.730;10.276;2022-09-27T00:29:21;2.07;;;1.70;;
11143;SDS011;5626;44.730;10.276;2022-09-27T00:31:51;1.83;;;1.47;;
11143;SDS011;5626;44.730;10.276;2022-09-27T00:34:21;4.10;;;1.60;;
11143;SDS011;5626;44.730;10.276;2022-09-27T00:36:53;1.60;;;1.50;;
11143;SDS011;5626;44.730;10.276;2022-09-27T00:39:23;1.70;;;1.60;;
11143;SDS011;5626;44.730;10.276;2022-09-27T00:41:54;2.50;;;1.50;;
11143;SDS011;5626;44.730;10.276;2022-09-27T00:44:52;1.50;;;1.40;;
11143;SDS011;5626;44.730;10.276;2022-09-27T00:47:35;2.00;;;1.50;;
11143;SDS011;5626;44.730;10.276;2022-09-27T00:50:12;1.50;;;1.40;;
11143;SDS011;5626;44.730;10.276;2022-09-27T00:52:50;2.80;;;1.63;;
11143;SDS011;5626;44.730;10.276;2022-09-27T00:55:28;1.70;;;1.60;;
11143;SDS011;5626;44.730;10.276;2022-09-27T00:58:04;2.07;;;1.73;;
11143;SDS011;5626;44.730;10.276;2022-09-27T01:00:35;2.83;;;1.47;;
11143;SDS011;5626;44.730;10.276;2022-09-27T01:03:07;1.37;;;1.30;;
11143;SDS011;5626;44.730;10.276;2022-09-27T01:05:41;2.67;;;1.87;;
11143;SDS011;5626;44.730;10.276;2022-09-27T01:08:11;1.60;;;1.50;;
11143;SDS011;5626;44.730;10.276;2022-09-27T01:10:43;2.23;;;1.73;;
11143;SDS011;5626;44.730;10.276;2022-09-27T01:13:27;1.70;;;1.60;;
11143;SDS011;5626;44.730;10.276;2022-09-27T01:16:04;2.00;;;1.80;;
11143;SDS011;5626;44.730;10.276;2022-09-27T01:18:43;3.03;;;1.60;;
11143;SDS011;5626;44.730;10.276;2022-09-27T01:21:31;5.20;;;2.40;;
11143;SDS011;5626;44.730;10.276;2022-09-27T01:27:38;1.60;;;1.50;;
11143;SDS011;5626;44.730;10.276;2022-09-27T01:30:36;1.73;;;1.63;;
11143;SDS011;5626;44.730;10.276;2022-09-27T01:33:19;2.80;;;1.58;;
11143;SDS011;5626;44.730;10.276;2022-09-27T01:36:05;2.43;;;2.17;;
11143;SDS011;5626;44.730;10.276;2022-09-27T01:38:45;3.23;;;1.80;;
11143;SDS011;5626;44.730;10.276;2022-09-27T01:41:26;3.50;;;1.90;;
11143;SDS011;5626;44.730;10.276;2022-09-27T01:44:29;1.80;;;1.70;;
11143;SDS011;5626;44.730;10.276;2022-09-27T01:47:11;1.77;;;1.67;;
11143;SDS011;5626;44.730;10.276;2022-09-27T01:50:08;4.30;;;1.80;;
11143;SDS011;5626;44.730;10.276;2022-09-27T01:52:43;1.93;;;1.80;;
11143;SDS011;5626;44.730;10.276;2022-09-27T01:55:20;2.90;;;2.17;;
11143;SDS011;5626;44.730;10.276;2022-09-27T01:58:17;2.70;;;1.77;;
11143;SDS011;5626;44.730;10.276;2022-09-27T02:00:53;1.80;;;1.70;;
11143;SDS011;5626;44.730;10.276;2022-09-27T02:03:26;1.87;;;1.77;;
11143;SDS011;5626;44.730;10.276;2022-09-27T02:06:21;4.50;;;2.00;;
11143;SDS011;5626;44.730;10.276;2022-09-27T02:09:01;2.00;;;1.60;;
11143;SDS011;5626;44.730;10.276;2022-09-27T02:11:51;2.93;;;1.90;;
11143;SDS011;5626;44.730;10.276;2022-09-27T02:14:27;1.67;;;1.57;;
11143;SDS011;5626;44.730;10.276;2022-09-27T02:17:04;1.70;;;1.60;;
11143;SDS011;5626;44.730;10.276;2022-09-27T02:19:43;2.00;;;1.90;;
11143;SDS011;5626;44.730;10.276;2022-09-27T02:22:29;2.63;;;1.70;;
11143;SDS011;5626;44.730;10.276;2022-09-27T02:25:05;2.10;;;1.90;;
11143;SDS011;5626;44.730;10.276;2022-09-27T02:27:44;2.20;;;2.00;;
11143;SDS011;5626;44.730;10.276;2022-09-27T02:30:25;2.40;;;2.17;;
11143;SDS011;5626;44.730;10.276;2022-09-27T02:33:06;3.23;;;2.17;;
11143;SDS011;5626;44.730;10.276;2022-09-27T02:35:38;2.73;;;2.27;;
11143;SDS011;5626;44.730;10.276;2022-09-27T02:38:07;4.63;;;2.50;;
11143;SDS011;5626;44.730;10.276;2022-09-27T02:40:41;2.87;;;2.57;;
11143;SDS011;5626;44.730;10.276;2022-09-27T02:43:12;3.60;;;2.47;;
11143;SDS011;5626;44.730;10.276;2022-09-27T02:45:47;3.80;;;2.23;;
11143;SDS011;5626;44.730;10.276;2022-09-27T02:48:29;2.63;;;2.43;;
11143;SDS011;5626;44.730;10.276;2022-09-27T02:51:12;4.03;;;2.87;;
11143;SDS011;5626;44.730;10.276;2022-09-27T02:54:01;3.93;;;2.37;;
11143;SDS011;5626;44.730;10.276;2022-09-27T02:57:21;2.67;;;2.47;;
11143;SDS011;5626;44.730;10.276;2022-09-27T03:00:21;2.47;;;2.27;;
11143;SDS011;5626;44.730;10.276;2022-09-27T03:03:19;6.27;;;2.80;;
11143;SDS011;5626;44.730;10.276;2022-09-27T03:06:00;3.67;;;2.57;;
11143;SDS011;5626;44.730;10.276;2022-09-27T03:08:34;2.40;;;2.20;;
11143;SDS011;5626;44.730;10.276;2022-09-27T03:11:06;5.43;;;2.40;;
11143;SDS011;5626;44.730;10.276;2022-09-27T03:13:36;3.37;;;2.60;;
11143;SDS011;5626;44.730;10.276;2022-09-27T03:16:16;4.13;;;2.83;;
11143;SDS011;5626;44.730;10.276;2022-09-27T03:19:07;4.53;;;2.70;;
11143;SDS011;5626;44.730;10.276;2022-09-27T03:21:59;3.90;;;2.50;;
11143;SDS011;5626;44.730;10.276;2022-09-27T03:24:31;3.20;;;2.40;;
11143;SDS011;5626;44.730;10.276;2022-09-27T03:27:00;3.07;;;2.77;;
11143;SDS011;5626;44.730;10.276;2022-09-27T03:29:30;3.57;;;2.23;;
11143;SDS011;5626;44.730;10.276;2022-09-27T03:32:05;3.93;;;2.20;;
11143;SDS011;5626;44.730;10.276;2022-09-27T03:35:04;2.87;;;2.47;;
11143;SDS011;5626;44.730;10.276;2022-09-27T03:37:34;4.87;;;3.17;;
11143;SDS011;5626;44.730;10.276;2022-09-27T03:40:07;3.13;;;2.90;;
11143;SDS011;5626;44.730;10.276;2022-09-27T03:42:37;3.53;;;3.23;;
11143;SDS011;5626;44.730;10.276;2022-09-27T03:45:09;3.40;;;3.10;;
11143;SDS011;5626;44.730;10.276;2022-09-27T03:47:40;3.37;;;2.97;;
11143;SDS011;5626;44.730;10.276;2022-09-27T03:50:10;4.37;;;3.97;;
11143;SDS011;5626;44.730;10.276;2022-09-27T03:52:41;3.50;;;3.20;;
11143;SDS011;5626;44.730;10.276;2022-09-27T03:55:12;3.40;;;3.10;;
11143;SDS011;5626;44.730;10.276;2022-09-27T03:57:43;4.93;;;3.40;;
11143;SDS011;5626;44.730;10.276;2022-09-27T04:00:16;3.87;;;3.57;;
11143;SDS011;5626;44.730;10.276;2022-09-27T04:02:46;4.50;;;3.70;;
11143;SDS011;5626;44.730;10.276;2022-09-27T04:05:22;6.27;;;4.37;;
11143;SDS011;5626;44.730;10.276;2022-09-27T04:07:56;4.37;;;3.97;;
11143;SDS011;5626;44.730;10.276;2022-09-27T04:10:27;5.20;;;4.60;;
11143;SDS011;5626;44.730;10.276;2022-09-27T04:12:57;5.53;;;4.83;;
11143;SDS011;5626;44.730;10.276;2022-09-27T04:15:31;4.83;;;4.17;;
11143;SDS011;5626;44.730;10.276;2022-09-27T04:18:19;5.43;;;4.00;;
11143;SDS011;5626;44.730;10.276;2022-09-27T04:21:08;5.27;;;4.50;;
11143;SDS011;5626;44.730;10.276;2022-09-27T04:23:44;4.10;;;3.70;;
11143;SDS011;5626;44.730;10.276;2022-09-27T04:26:18;5.07;;;4.57;;
11143;SDS011;5626;44.730;10.276;2022-09-27T04:28:58;6.97;;;4.97;;
11143;SDS011;5626;44.730;10.276;2022-09-27T04:31:28;5.77;;;5.10;;
11143;SDS011;5626;44.730;10.276;2022-09-27T04:34:16;7.50;;;5.17;;
11143;SDS011;5626;44.730;10.276;2022-09-27T04:37:10;6.57;;;4.70;;
11143;SDS011;5626;44.730;10.276;2022-09-27T04:39:42;5.83;;;4.93;;
11143;SDS011;5626;44.730;10.276;2022-09-27T04:42:13;8.13;;;5.60;;
11143;SDS011;5626;44.730;10.276;2022-09-27T04:44:44;6.73;;;5.67;;
11143;SDS011;5626;44.730;10.276;2022-09-27T04:47:14;7.40;;;6.00;;
11143;SDS011;5626;44.730;10.276;2022-09-27T04:49:44;9.00;;;7.23;;
11143;SDS011;5626;44.730;10.276;2022-09-27T04:52:14;9.47;;;8.17;;
11143;SDS011;5626;44.730;10.276;2022-09-27T04:54:44;12.50;;;8.70;;
11143;SDS011;5626;44.730;10.276;2022-09-27T04:57:15;11.20;;;8.80;;
11143;SDS011;5626;44.730;10.276;2022-09-27T04:59:45;10.30;;;8.17;;
11143;SDS011;5626;44.730;10.276;2022-09-27T05:02:19;10.53;;;8.23;;
11143;SDS011;5626;44.730;10.276;2022-09-27T05:05:18;10.67;;;8.60;;
11143;SDS011;5626;44.730;10.276;2022-09-27T05:07:48;15.80;;;7.87;;
11143;SDS011;5626;44.730;10.276;2022-09-27T05:10:30;9.83;;;8.80;;
11143;SDS011;5626;44.730;10.276;2022-09-27T05:13:02;9.80;;;8.60;;
11143;SDS011;5626;44.730;10.276;2022-09-27T05:15:32;8.43;;;5.03;;
11143;SDS011;5626;44.730;10.276;2022-09-27T05:18:32;10.00;;;5.43;;
11143;SDS011;5626;44.730;10.276;2022-09-27T05:21:37;8.47;;;5.43;;
11143;SDS011;5626;44.730;10.276;2022-09-27T05:24:07;10.60;;;5.40;;
11143;SDS011;5626;44.730;10.276;2022-09-27T05:26:37;10.00;;;5.87;;
11143;SDS011;5626;44.730;10.276;2022-09-27T05:29:08;8.53;;;5.20;;
11143;SDS011;5626;44.730;10.276;2022-09-27T05:31:39;5.50;;;3.70;;
11143;SDS011;5626;44.730;10.276;2022-09-27T05:34:09;4.67;;;3.33;;
11143;SDS011;5626;44.730;10.276;2022-09-27T05:36:46;5.77;;;3.33;;
11143;SDS011;5626;44.730;10.276;2022-09-27T05:39:16;4.90;;;2.93;;
11143;SDS011;5626;44.730;10.276;2022-09-27T05:41:46;3.90;;;3.13;;
11143;SDS011;5626;44.730;10.276;2022-09-27T05:44:23;4.00;;;3.00;;
11143;SDS011;5626;44.730;10.276;2022-09-27T05:46:59;4.70;;;2.90;;
11143;SDS011;5626;44.730;10.276;2022-09-27T05:49:31;5.93;;;2.90;;
11143;SDS011;5626;44.730;10.276;2022-09-27T05:52:03;7.83;;;3.60;;
11143;SDS011;5626;44.730;10.276;2022-09-27T05:54:32;4.20;;;2.93;;
11143;SDS011;5626;44.730;10.276;2022-09-27T05:57:02;2.90;;;2.60;;
11143;SDS011;5626;44.730;10.276;2022-09-27T05:59:53;4.23;;;2.80;;
11143;SDS011;5626;44.730;10.276;2022-09-27T06:02:38;3.77;;;2.77;;
11143;SDS011;5626;44.730;10.276;2022-09-27T06:05:40;3.47;;;2.63;;
11143;SDS011;5626;44.730;10.276;2022-09-27T06:08:37;3.43;;;3.13;;
11143;SDS011;5626;44.730;10.276;2022-09-27T06:11:11;7.03;;;3.30;;
11143;SDS011;5626;44.730;10.276;2022-09-27T06:13:41;4.27;;;3.10;;
11143;SDS011;5626;44.730;10.276;2022-09-27T06:16:13;5.00;;;2.90;;
11143;SDS011;5626;44.730;10.276;2022-09-27T06:18:44;4.63;;;2.63;;
11143;SDS011;5626;44.730;10.276;2022-09-27T06:21:15;6.10;;;3.20;;
11143;SDS011;5626;44.730;10.276;2022-09-27T06:23:53;4.37;;;3.10;;
11143;SDS011;5626;44.730;10.276;2022-09-27T06:26:29;5.53;;;2.90;;
11143;SDS011;5626;44.730;10.276;2022-09-27T06:29:25;6.27;;;3.40;;
11143;SDS011;5626;44.730;10.276;2022-09-27T06:32:00;9.90;;;3.67;;
11143;SDS011;5626;44.730;10.276;2022-09-27T06:34:41;4.27;;;3.13;;
11143;SDS011;5626;44.730;10.276;2022-09-27T06:37:11;8.27;;;3.50;;
11143;SDS011;5626;44.730;10.276;2022-09-27T06:39:41;5.23;;;3.10;;
11143;SDS011;5626;44.730;10.276;2022-09-27T06:42:29;5.77;;;3.23;;
11143;SDS011;5626;44.730;10.276;2022-09-27T06:45:09;4.87;;;3.40;;
11143;SDS011;5626;44.730;10.276;2022-09-27T06:48:03;4.83;;;2.80;;
11143;SDS011;5626;44.730;10.276;2022-09-27T06:50:47;6.80;;;3.47;;
11143;SDS011;5626;44.730;10.276;2022-09-27T06:53:19;6.23;;;3.40;;
11143;SDS011;5626;44.730;10.276;2022-09-27T06:55:50;6.27;;;3.40;;
11143;SDS011;5626;44.730;10.276;2022-09-27T06:58:20;4.67;;;3.30;;
11143;SDS011;5626;44.730;10.276;2022-09-27T07:01:33;5.37;;;3.10;;
11143;SDS011;5626;44.730;10.276;2022-09-27T07:04:30;7.80;;;3.03;;
11143;SDS011;5626;44.730;10.276;2022-09-27T07:07:19;9.20;;;4.37;;
11143;SDS011;5626;44.730;10.276;2022-09-27T07:09:49;7.90;;;5.27;;
11143;SDS011;5626;44.730;10.276;2022-09-27T07:12:28;9.17;;;7.87;;
11143;SDS011;5626;44.730;10.276;2022-09-27T07:15:00;14.33;;;11.83;;
11143;SDS011;5626;44.730;10.276;2022-09-27T07:17:33;15.33;;;12.27;;
11143;SDS011;5626;44.730;10.276;2022-09-27T07:20:06;15.02;;;13.40;;
11143;SDS011;5626;44.730;10.276;2022-09-27T07:22:38;16.13;;;13.55;;
11143;SDS011;5626;44.730;10.276;2022-09-27T07:25:10;16.13;;;13.23;;
11143;SDS011;5626;44.730;10.276;2022-09-27T07:27:40;15.57;;;12.50;;
11143;SDS011;5626;44.730;10.276;2022-09-27T07:30:10;17.05;;;12.65;;
11143;SDS011;5626;44.730;10.276;2022-09-27T07:32:40;15.60;;;13.95;;
11143;SDS011;5626;44.730;10.276;2022-09-27T07:35:13;16.42;;;13.48;;
11143;SDS011;5626;44.730;10.276;2022-09-27T07:37:44;13.27;;;10.13;;
11143;SDS011;5626;44.730;10.276;2022-09-27T07:40:13;13.32;;;11.93;;
11143;SDS011;5626;44.730;10.276;2022-09-27T07:42:43;14.13;;;11.75;;
11143;SDS011;5626;44.730;10.276;2022-09-27T07:45:13;13.15;;;9.43;;
11143;SDS011;5626;44.730;10.276;2022-09-27T07:48:06;12.93;;;10.27;;
11143;SDS011;5626;44.730;10.276;2022-09-27T07:50:56;13.48;;;11.27;;
11143;SDS011;5626;44.730;10.276;2022-09-27T07:54:02;15.27;;;12.52;;
11143;SDS011;5626;44.730;10.276;2022-09-27T07:57:03;10.45;;;8.23;;
11143;SDS011;5626;44.730;10.276;2022-09-27T07:59:41;17.58;;;15.95;;
11143;SDS011;5626;44.730;10.276;2022-09-27T08:02:14;15.95;;;11.77;;
11143;SDS011;5626;44.730;10.276;2022-09-27T08:04:47;12.68;;;10.88;;
11143;SDS011;5626;44.730;10.276;2022-09-27T08:07:20;13.10;;;10.75;;
11143;SDS011;5626;44.730;10.276;2022-09-27T08:09:52;16.35;;;12.30;;
11143;SDS011;5626;44.730;10.276;2022-09-27T08:12:23;14.68;;;11.80;;
11143;SDS011;5626;44.730;10.276;2022-09-27T08:14:53;16.60;;;12.63;;
11143;SDS011;5626;44.730;10.276;2022-09-27T08:17:27;11.65;;;9.90;;
11143;SDS011;5626;44.730;10.276;2022-09-27T08:20:17;12.02;;;7.95;;
11143;SDS011;5626;44.730;10.276;2022-09-27T08:23:19;12.82;;;11.45;;
11143;SDS011;5626;44.730;10.276;2022-09-27T08:25:55;17.45;;;12.15;;
11143;SDS011;5626;44.730;10.276;2022-09-27T08:28:30;14.82;;;11.20;;
11143;SDS011;5626;44.730;10.276;2022-09-27T08:31:05;12.23;;;10.38;;
11143;SDS011;5626;44.730;10.276;2022-09-27T08:33:34;12.65;;;8.50;;
11143;SDS011;5626;44.730;10.276;2022-09-27T08:36:09;12.23;;;9.93;;
11143;SDS011;5626;44.730;10.276;2022-09-27T08:38:41;9.73;;;7.00;;
11143;SDS011;5626;44.730;10.276;2022-09-27T08:41:12;8.63;;;5.93;;
11143;SDS011;5626;44.730;10.276;2022-09-27T08:43:50;17.92;;;6.35;;
11143;SDS011;5626;44.730;10.276;2022-09-27T08:46:30;10.30;;;6.10;;
11143;SDS011;5626;44.730;10.276;2022-09-27T08:49:08;8.63;;;6.00;;
11143;SDS011;5626;44.730;10.276;2022-09-27T08:51:42;12.48;;;5.63;;
11143;SDS011;5626;44.730;10.276;2022-09-27T08:54:18;12.88;;;6.70;;
11143;SDS011;5626;44.730;10.276;2022-09-27T08:56:51;15.48;;;6.70;;
11143;SDS011;5626;44.730;10.276;2022-09-27T08:59:24;11.82;;;6.55;;
11143;SDS011;5626;44.730;10.276;2022-09-27T09:01:58;7.45;;;5.65;;
11143;SDS011;5626;44.730;10.276;2022-09-27T09:04:32;13.60;;;6.80;;
11143;SDS011;5626;44.730;10.276;2022-09-27T09:07:06;10.30;;;6.40;;
11143;SDS011;5626;44.730;10.276;2022-09-27T09:09:46;10.90;;;7.28;;
11143;SDS011;5626;44.730;10.276;2022-09-27T09:12:25;13.02;;;6.85;;
11143;SDS011;5626;44.730;10.276;2022-09-27T09:15:34;10.43;;;6.93;;
11143;SDS011;5626;44.730;10.276;2022-09-27T09:18:33;11.95;;;6.93;;
11143;SDS011;5626;44.730;10.276;2022-09-27T09:21:44;11.85;;;8.23;;
11143;SDS011;5626;44.730;10.276;2022-09-27T09:24:24;14.35;;;7.60;;
11143;SDS011;5626;44.730;10.276;2022-09-27T09:27:14;9.15;;;7.57;;
11143;SDS011;5626;44.730;10.276;2022-09-27T09:29:55;11.90;;;6.88;;
11143;SDS011;5626;44.730;10.276;2022-09-27T09:32:40;10.80;;;8.30;;
11143;SDS011;5626;44.730;10.276;2022-09-27T09:35:21;14.90;;;8.48;;
11143;SDS011;5626;44.730;10.276;2022-09-27T09:37:56;15.63;;;8.25;;
11143;SDS011;5626;44.730;10.276;2022-09-27T09:40:30;11.13;;;7.40;;
11143;SDS011;5626;44.730;10.276;2022-09-27T09:43:07;12.18;;;8.48;;
11143;SDS011;5626;44.730;10.276;2022-09-27T09:45:41;12.50;;;9.27;;
11143;SDS011;5626;44.730;10.276;2022-09-27T09:48:18;18.27;;;11.32;;
11143;SDS011;5626;44.730;10.276;2022-09-27T09:50:57;10.95;;;9.68;;
11143;SDS011;5626;44.730;10.276;2022-09-27T09:53:33;16.23;;;10.70;;
11143;SDS011;5626;44.730;10.276;2022-09-27T09:56:11;13.38;;;9.55;;
11143;SDS011;5626;44.730;10.276;2022-09-27T09:58:48;14.50;;;9.95;;
11143;SDS011;5626;44.730;10.276;2022-09-27T10:01:29;15.23;;;9.65;;
11143;SDS011;5626;44.730;10.276;2022-09-27T10:04:04;14.95;;;12.02;;
11143;SDS011;5626;44.730;10.276;2022-09-27T10:06:34;13.82;;;12.43;;
11143;SDS011;5626;44.730;10.276;2022-09-27T10:09:04;12.35;;;10.95;;
11143;SDS011;5626;44.730;10.276;2022-09-27T10:11:42;13.57;;;12.15;;
11143;SDS011;5626;44.730;10.276;2022-09-27T10:14:25;11.85;;;9.82;;
11143;SDS011;5626;44.730;10.276;2022-09-27T10:17:01;12.90;;;11.48;;
11143;SDS011;5626;44.730;10.276;2022-09-27T10:19:33;12.43;;;9.63;;
11143;SDS011;5626;44.730;10.276;2022-09-27T10:22:10;14.75;;;12.10;;
11143;SDS011;5626;44.730;10.276;2022-09-27T10:24:52;14.80;;;13.30;;
11143;SDS011;5626;44.730;10.276;2022-09-27T10:27:56;16.50;;;13.50;;
11143;SDS011;5626;44.730;10.276;2022-09-27T10:30:33;14.73;;;13.23;;
11143;SDS011;5626;44.730;10.276;2022-09-27T10:33:13;15.55;;;13.43;;
11143;SDS011;5626;44.730;10.276;2022-09-27T10:35:59;15.82;;;12.27;;
11143;SDS011;5626;44.730;10.276;2022-09-27T10:38:34;15.65;;;14.15;;
11143;SDS011;5626;44.730;10.276;2022-09-27T10:41:16;15.20;;;13.52;;
11143;SDS011;5626;44.730;10.276;2022-09-27T10:44:17;14.77;;;13.20;;
11143;SDS011;5626;44.730;10.276;2022-09-27T10:47:04;19.17;;;17.27;;
11143;SDS011;5626;44.730;10.276;2022-09-27T10:49:44;18.85;;;16.90;;
11143;SDS011;5626;44.730;10.276;2022-09-27T10:52:32;18.17;;;15.52;;
11143;SDS011;5626;44.730;10.276;2022-09-27T10:55:04;14.57;;;13.02;;
11143;SDS011;5626;44.730;10.276;2022-09-27T10:57:46;16.08;;;14.43;;
11143;SDS011;5626;44.730;10.276;2022-09-27T11:00:19;18.17;;;16.30;;
11143;SDS011;5626;44.730;10.276;2022-09-27T11:02:54;16.02;;;14.43;;
11143;SDS011;5626;44.730;10.276;2022-09-27T11:05:30;14.40;;;12.18;;
11143;SDS011;5626;44.730;10.276;2022-09-27T11:08:13;13.38;;;11.98;;
11143;SDS011;5626;44.730;10.276;2022-09-27T11:11:06;16.10;;;13.90;;
11143;SDS011;5626;44.730;10.276;2022-09-27T11:13:56;15.57;;;14.07;;
11143;SDS011;5626;44.730;10.276;2022-09-27T11:16:31;15.43;;;13.77;;
11143;SDS011;5626;44.730;10.276;2022-09-27T11:19:23;16.17;;;14.48;;
11143;SDS011;5626;44.730;10.276;2022-09-27T11:22:06;16.33;;;14.82;;
11143;SDS011;5626;44.730;10.276;2022-09-27T11:24:53;16.02;;;14.50;;
11143;SDS011;5626;44.730;10.276;2022-09-27T11:27:36;16.27;;;13.52;;
11143;SDS011;5626;44.730;10.276;2022-09-27T11:30:16;13.27;;;11.93;;
11143;SDS011;5626;44.730;10.276;2022-09-27T11:33:17;13.13;;;11.82;;
11143;SDS011;5626;44.730;10.276;2022-09-27T11:36:13;12.68;;;10.80;;
11143;SDS011;5626;44.730;10.276;2022-09-27T11:38:56;13.77;;;12.02;;
11143;SDS011;5626;44.730;10.276;2022-09-27T11:41:39;12.60;;;11.45;;
11143;SDS011;5626;44.730;10.276;2022-09-27T11:44:32;12.80;;;11.63;;
11143;SDS011;5626;44.730;10.276;2022-09-27T11:47:32;11.98;;;10.77;;
11143;SDS011;5626;44.730;10.276;2022-09-27T11:50:15;12.57;;;11.15;;
11143;SDS011;5626;44.730;10.276;2022-09-27T11:53:02;12.23;;;11.02;;
11143;SDS011;5626;44.730;10.276;2022-09-27T11:55:50;13.73;;;10.50;;
11143;SDS011;5626;44.730;10.276;2022-09-27T11:58:23;13.57;;;11.20;;
11143;SDS011;5626;44.730;10.276;2022-09-27T12:01:06;14.48;;;11.13;;
11143;SDS011;5626;44.730;10.276;2022-09-27T12:06:50;11.60;;;10.40;;
11143;SDS011;5626;44.730;10.276;2022-09-27T12:09:29;12.90;;;10.18;;
11143;SDS011;5626;44.730;10.276;2022-09-27T12:12:04;12.13;;;10.27;;
11143;SDS011;5626;44.730;10.276;2022-09-27T12:14:42;12.32;;;11.13;;
11143;SDS011;5626;44.730;10.276;2022-09-27T12:17:16;12.43;;;10.98;;
11143;SDS011;5626;44.730;10.276;2022-09-27T12:19:50;14.90;;;11.02;;
11143;SDS011;5626;44.730;10.276;2022-09-27T12:22:34;14.93;;;9.45;;
11143;SDS011;5626;44.730;10.276;2022-09-27T12:25:34;13.13;;;9.52;;
11143;SDS011;5626;44.730;10.276;2022-09-27T12:28:17;15.18;;;9.73;;
11143;SDS011;5626;44.730;10.276;2022-09-27T12:30:56;16.00;;;9.60;;
11143;SDS011;5626;44.730;10.276;2022-09-27T12:33:56;14.13;;;9.55;;
11143;SDS011;5626;44.730;10.276;2022-09-27T12:36:33;12.70;;;10.50;;
11143;SDS011;5626;44.730;10.276;2022-09-27T12:39:09;12.40;;;11.27;;
11143;SDS011;5626;44.730;10.276;2022-09-27T12:41:50;11.18;;;9.40;;
11143;SDS011;5626;44.730;10.276;2022-09-27T12:44:39;12.10;;;10.90;;
11143;SDS011;5626;44.730;10.276;2022-09-27T12:47:17;11.35;;;10.15;;
11143;SDS011;5626;44.730;10.276;2022-09-27T12:49:58;13.02;;;10.68;;
11143;SDS011;5626;44.730;10.276;2022-09-27T12:52:34;15.68;;;10.55;;
11143;SDS011;5626;44.730;10.276;2022-09-27T12:58:27;12.35;;;11.10;;
11143;SDS011;5626;44.730;10.276;2022-09-27T13:01:16;12.13;;;9.93;;
11143;SDS011;5626;44.730;10.276;2022-09-27T13:04:02;11.82;;;10.07;;
11143;SDS011;5626;44.730;10.276;2022-09-27T13:07:12;14.18;;;10.02;;
11143;SDS011;5626;44.730;10.276;2022-09-27T13:12:46;12.25;;;9.20;;
11143;SDS011;5626;44.730;10.276;2022-09-27T13:15:20;13.35;;;9.98;;
11143;SDS011;5626;44.730;10.276;2022-09-27T13:17:55;9.98;;;9.07;;
11143;SDS011;5626;44.730;10.276;2022-09-27T13:20:39;11.50;;;8.75;;
11143;SDS011;5626;44.730;10.276;2022-09-27T13:23:50;11.07;;;9.98;;
11143;SDS011;5626;44.730;10.276;2022-09-27T13:26:41;10.20;;;9.20;;
11143;SDS011;5626;44.730;10.276;2022-09-27T13:35:18;12.95;;;9.43;;
11143;SDS011;5626;44.730;10.276;2022-09-27T13:38:17;10.30;;;8.35;;
11143;SDS011;5626;44.730;10.276;2022-09-27T13:40:51;8.75;;;7.95;;
11143;SDS011;5626;44.730;10.276;2022-09-27T13:43:35;10.32;;;8.35;;
11143;SDS011;5626;44.730;10.276;2022-09-27T13:46:33;9.93;;;8.43;;
11143;SDS011;5626;44.730;10.276;2022-09-27T13:49:12;9.70;;;7.70;;
11143;SDS011;5626;44.730;10.276;2022-09-27T13:52:14;10.38;;;9.27;;
11143;SDS011;5626;44.730;10.276;2022-09-27T13:55:02;11.38;;;9.13;;
11143;SDS011;5626;44.730;10.276;2022-09-27T13:57:40;11.05;;;9.48;;
11143;SDS011;5626;44.730;10.276;2022-09-27T14:00:18;8.25;;;7.30;;
11143;SDS011;5626;44.730;10.276;2022-09-27T14:02:58;10.30;;;8.27;;
11143;SDS011;5626;44.730;10.276;2022-09-27T14:05:37;8.43;;;7.53;;
11143;SDS011;5626;44.730;10.276;2022-09-27T14:08:13;10.30;;;9.15;;
11143;SDS011;5626;44.730;10.276;2022-09-27T14:10:47;10.98;;;8.85;;
11143;SDS011;5626;44.730;10.276;2022-09-27T14:13:18;10.55;;;7.45;;
11143;SDS011;5626;44.730;10.276;2022-09-27T14:16:02;11.02;;;7.07;;
11143;SDS011;5626;44.730;10.276;2022-09-27T14:18:39;6.45;;;5.85;;
11143;SDS011;5626;44.730;10.276;2022-09-27T14:21:21;5.18;;;3.72;;
11143;SDS011;5626;44.730;10.276;2022-09-27T14:27:14;5.78;;;3.75;;
11143;SDS011;5626;44.730;10.276;2022-09-27T14:29:48;4.85;;;3.47;;
11143;SDS011;5626;44.730;10.276;2022-09-27T14:32:24;4.88;;;3.65;;
11143;SDS011;5626;44.730;10.276;2022-09-27T14:35:04;7.18;;;3.30;;
11143;SDS011;5626;44.730;10.276;2022-09-27T14:37:59;4.90;;;3.35;;
11143;SDS011;5626;44.730;10.276;2022-09-27T14:40:38;4.63;;;2.50;;
11143;SDS011;5626;44.730;10.276;2022-09-27T14:43:12;4.88;;;2.97;;
11143;SDS011;5626;44.730;10.276;2022-09-27T14:45:44;5.38;;;3.22;;
11143;SDS011;5626;44.730;10.276;2022-09-27T14:48:19;5.47;;;3.03;;
11143;SDS011;5626;44.730;10.276;2022-09-27T14:50:53;5.13;;;2.90;;
11143;SDS011;5626;44.730;10.276;2022-09-27T14:53:32;3.92;;;3.10;;
11143;SDS011;5626;44.730;10.276;2022-09-27T14:56:03;4.15;;;3.00;;
11143;SDS011;5626;44.730;10.276;2022-09-27T14:58:33;3.15;;;2.15;;
11143;SDS011;5626;44.730;10.276;2022-09-27T15:01:13;5.07;;;2.47;;
11143;SDS011;5626;44.730;10.276;2022-09-27T15:03:44;3.60;;;2.20;;
11143;SDS011;5626;44.730;10.276;2022-09-27T15:06:16;6.28;;;2.40;;
11143;SDS011;5626;44.730;10.276;2022-09-27T15:08:48;5.55;;;2.60;;
11143;SDS011;5626;44.730;10.276;2022-09-27T15:11:19;4.90;;;2.22;;
11143;SDS011;5626;44.730;10.276;2022-09-27T15:13:50;5.75;;;2.20;;
11143;SDS011;5626;44.730;10.276;2022-09-27T15:16:21;3.88;;;1.90;;
11143;SDS011;5626;44.730;10.276;2022-09-27T15:19:02;2.80;;;1.63;;
11143;SDS011;5626;44.730;10.276;2022-09-27T15:21:40;4.63;;;2.15;;
11143;SDS011;5626;44.730;10.276;2022-09-27T15:27:12;3.95;;;1.90;;
11143;SDS011;5626;44.730;10.276;2022-09-27T15:29:46;5.43;;;1.70;;
11143;SDS011;5626;44.730;10.276;2022-09-27T15:32:18;5.65;;;2.03;;
11143;SDS011;5626;44.730;10.276;2022-09-27T15:34:50;4.28;;;2.13;;
11143;SDS011;5626;44.730;10.276;2022-09-27T15:37:25;7.65;;;2.28;;
11143;SDS011;5626;44.730;10.276;2022-09-27T15:39:57;4.70;;;2.38;;
11143;SDS011;5626;44.730;10.276;2022-09-27T15:42:57;3.60;;;1.80;;
11143;SDS011;5626;44.730;10.276;2022-09-27T15:45:28;5.75;;;1.83;;
11143;SDS011;5626;44.730;10.276;2022-09-27T15:48:05;4.80;;;1.85;;
11143;SDS011;5626;44.730;10.276;2022-09-27T15:50:41;4.28;;;2.30;;
11143;SDS011;5626;44.730;10.276;2022-09-27T15:53:11;5.75;;;2.05;;
11143;SDS011;5626;44.730;10.276;2022-09-27T15:56:02;5.22;;;1.92;;
11143;SDS011;5626;44.730;10.276;2022-09-27T15:58:34;7.85;;;2.20;;
11143;SDS011;5626;44.730;10.276;2022-09-27T16:01:04;4.60;;;2.00;;
11143;SDS011;5626;44.730;10.276;2022-09-27T16:03:33;8.02;;;2.13;;
11143;SDS011;5626;44.730;10.276;2022-09-27T16:06:03;3.20;;;1.70;;
11143;SDS011;5626;44.730;10.276;2022-09-27T16:08:33;6.57;;;2.42;;
11143;SDS011;5626;44.730;10.276;2022-09-27T16:11:04;4.97;;;2.03;;
11143;SDS011;5626;44.730;10.276;2022-09-27T16:13:33;6.20;;;2.53;;